Time;durP1;ratioP1;P1;durP2;ratioP2;P2;SDS_P1;SDS_P2;PMS_P1;PMS_P2;Temp;Humidity;BMP_temperature;BMP_pressure;BME280_temperature;BME280_humidity;BME280_pressure;Samples;Min_cycle;Max_cycle;Signal;HPM_P1;HPM_P2
2022/12/17 13:06:03;;;;;;;4.50;2.53;;;14.00;99.90;;;;;;5053141;28;20048;-73
2022/12/17 13:08:30;;;;;;;4.55;2.08;;;14.60;99.90;;;;;;5055734;28;20025;-74
2022/12/17 13:10:55;;;;;;;3.60;2.30;;;15.20;99.90;;;;;;5053345;28;20033;-71
2022/12/17 13:13:54;;;;;;;6.55;2.60;;;15.80;99.90;;;;;;5061118;28;20025;-64
2022/12/17 13:16:47;;;;;;;6.85;2.40;;;15.90;99.90;;;;;;5047257;28;20528;-64
2022/12/17 13:19:31;;;;;;;3.70;2.25;;;16.20;99.90;;;;;;5059603;28;20029;-64
2022/12/17 13:22:28;;;;;;;7.63;2.63;;;15.30;99.90;;;;;;5071854;28;20033;-65
2022/12/17 13:25:08;;;;;;;3.78;2.28;;;14.10;99.90;;;;;;5070651;28;20077;-64
2022/12/17 13:27:34;;;;;;;5.28;2.53;;;13.70;99.90;;;;;;5070731;28;20033;-64
2022/12/17 13:30:21;;;;;;;4.53;2.50;;;14.30;99.90;;;;;;5052740;28;20102;-63
2022/12/17 13:33:19;;;;;;;4.10;2.40;;;14.80;99.90;;;;;;5051350;28;20120;-63
2022/12/17 13:36:04;;;;;;;6.70;2.72;;;15.30;99.90;;;;;;5063915;28;20127;-65
2022/12/17 13:38:53;;;;;;;5.22;2.92;;;14.80;99.90;;;;;;5070004;28;20021;-64
2022/12/17 13:41:25;;;;;;;10.05;5.57;;;14.60;99.90;;;;;;5033090;28;20033;-64
2022/12/17 13:44:19;;;;;;;8.43;4.63;;;14.60;99.90;;;;;;5032540;28;20175;-64
2022/12/17 13:46:47;;;;;;;7.32;4.25;;;14.30;99.90;;;;;;5032059;28;20489;-62
2022/12/17 13:49:23;;;;;;;5.75;3.00;;;14.00;99.90;;;;;;5052500;28;20139;-64
2022/12/17 13:52:14;;;;;;;6.35;3.50;;;13.60;99.90;;;;;;5052540;28;20025;-63
2022/12/17 13:54:40;;;;;;;4.32;3.22;;;12.90;99.90;;;;;;5052508;28;20116;-63
2022/12/17 13:57:12;;;;;;;4.57;3.05;;;12.80;99.90;;;;;;5052362;28;20100;-62
2022/12/17 13:59:38;;;;;;;5.00;3.50;;;13.40;99.90;;;;;;5050951;28;20550;-63
2022/12/17 14:02:04;;;;;;;7.68;3.75;;;13.40;99.90;;;;;;5051935;28;20040;-66
2022/12/17 14:04:30;;;;;;;5.75;4.00;;;14.10;99.90;;;;;;5052203;28;20401;-66
2022/12/17 14:07:03;;;;;;;7.07;4.00;;;14.60;99.90;;;;;;5045148;28;20021;-67
2022/12/17 14:09:34;;;;;;;5.68;3.40;;;15.70;99.90;;;;;;5066933;28;20036;-66
2022/12/17 14:12:22;;;;;;;7.88;3.50;;;16.20;99.90;;;;;;5064622;28;20028;-66
2022/12/17 14:14:57;;;;;;;4.57;3.00;;;16.40;99.90;;;;;;5057673;28;20087;-66
2022/12/17 14:17:28;;;;;;;6.72;3.58;;;16.30;99.90;;;;;;5032090;28;20049;-67
2022/12/17 14:19:58;;;;;;;5.90;3.33;;;16.60;99.90;;;;;;5056048;28;20020;-66
2022/12/17 14:22:46;;;;;;;4.75;3.10;;;16.70;99.90;;;;;;5065693;28;20025;-67
2022/12/17 14:25:22;;;;;;;6.40;3.53;;;16.80;99.90;;;;;;5031373;28;20080;-66
2022/12/17 14:27:55;;;;;;;4.57;2.90;;;16.70;99.90;;;;;;5057941;28;20103;-67
2022/12/17 14:30:36;;;;;;;5.47;2.50;;;16.20;99.90;;;;;;5071830;28;20021;-65
2022/12/17 14:33:02;;;;;;;5.03;2.67;;;14.40;99.90;;;;;;5071699;28;20021;-65
2022/12/17 14:35:35;;;;;;;5.78;3.22;;;12.80;99.90;;;;;;5069278;28;20377;-65
2022/12/17 14:38:01;;;;;;;6.00;3.00;;;11.60;99.90;;;;;;5060272;28;20074;-66
2022/12/17 14:40:27;;;;;;;7.35;3.42;;;10.50;99.90;;;;;;5051356;28;20032;-66
2022/12/17 14:42:58;;;;;;;5.38;2.60;;;9.60;99.90;;;;;;5050013;28;20021;-66
2022/12/17 14:45:26;;;;;;;6.57;3.03;;;8.70;99.90;;;;;;5062080;28;20472;-67
2022/12/17 14:48:05;;;;;;;5.28;2.88;;;8.10;99.90;;;;;;5067330;28;20060;-65
2022/12/17 14:50:35;;;;;;;3.72;2.92;;;7.60;99.90;;;;;;5051383;28;20415;-65
2022/12/17 14:53:22;;;;;;;6.60;3.30;;;7.20;99.90;;;;;;5049907;28;20036;-68
2022/12/17 14:55:56;;;;;;;7.78;4.13;;;7.00;99.90;;;;;;5051294;28;20070;-67
2022/12/17 14:58:24;;;;;;;7.45;3.22;;;6.80;99.90;;;;;;5051099;28;20044;-65
2022/12/17 15:00:55;;;;;;;6.20;3.38;;;6.60;99.90;;;;;;5048825;28;20032;-57
2022/12/17 15:03:27;;;;;;;7.10;3.30;;;6.60;99.90;;;;;;5039958;28;20037;-57
2022/12/17 15:06:01;;;;;;;6.25;3.50;;;6.60;99.90;;;;;;5050393;28;20032;-58
2022/12/17 15:08:36;;;;;;;7.90;3.58;;;7.20;99.90;;;;;;5051064;28;20020;-58
2022/12/17 15:11:01;;;;;;;6.97;3.08;;;8.30;99.90;;;;;;5050720;28;20028;-58
2022/12/17 15:13:27;;;;;;;6.05;3.10;;;9.10;99.90;;;;;;5050229;28;20385;-59
2022/12/17 15:15:53;;;;;;;8.38;3.30;;;9.90;99.90;;;;;;5050939;28;20032;-59
2022/12/17 15:18:18;;;;;;;6.20;2.83;;;10.30;99.90;;;;;;5050768;28;20029;-58
2022/12/17 15:20:44;;;;;;;6.30;3.10;;;10.50;99.90;;;;;;5050883;28;20464;-57
2022/12/17 15:23:18;;;;;;;3.90;2.33;;;10.70;99.90;;;;;;5050625;28;20021;-58
2022/12/17 15:25:45;;;;;;;4.28;2.67;;;10.90;99.90;;;;;;5050586;28;20041;-56
2022/12/17 15:28:11;;;;;;;4.30;2.60;;;10.90;99.90;;;;;;5050091;28;20381;-59
2022/12/17 15:30:38;;;;;;;6.95;2.80;;;11.00;99.90;;;;;;5050918;28;20091;-56
2022/12/17 15:33:08;;;;;;;5.05;2.85;;;11.00;99.90;;;;;;5050706;28;20108;-59
2022/12/17 15:35:35;;;;;;;5.55;3.25;;;10.90;99.90;;;;;;5050806;28;20078;-57
2022/12/17 15:38:01;;;;;;;8.15;2.80;;;10.60;99.90;;;;;;5050590;28;20087;-58
2022/12/17 15:40:27;;;;;;;4.15;2.40;;;9.80;99.90;;;;;;5050716;28;20021;-59
2022/12/17 15:43:11;;;;;;;5.40;2.72;;;9.40;99.90;;;;;;5050690;28;20032;-59
2022/12/17 15:45:37;;;;;;;6.22;3.38;;;8.90;99.90;;;;;;5050450;28;20033;-58
2022/12/17 15:48:03;;;;;;;5.45;3.05;;;8.30;99.90;;;;;;5050668;28;20496;-58
2022/12/17 15:50:29;;;;;;;5.53;3.13;;;7.50;99.90;;;;;;5050694;28;20041;-58
2022/12/17 15:52:55;;;;;;;5.80;3.08;;;6.90;99.90;;;;;;5050759;28;20025;-58
2022/12/17 15:55:20;;;;;;;5.63;2.97;;;6.30;99.90;;;;;;5050649;28;20536;-57
2022/12/17 15:57:46;;;;;;;6.43;3.20;;;5.90;99.90;;;;;;5049836;28;20036;-57
2022/12/17 16:00:12;;;;;;;6.63;3.33;;;5.60;99.90;;;;;;5050455;28;20029;-60
2022/12/17 16:02:38;;;;;;;9.63;3.72;;;5.30;99.90;;;;;;5050347;28;20154;-58
2022/12/17 16:05:04;;;;;;;9.93;3.47;;;5.00;99.90;;;;;;5050386;28;20607;-58
2022/12/17 16:07:29;;;;;;;8.50;3.97;;;4.70;99.90;;;;;;5048909;28;20033;-56
2022/12/17 16:09:55;;;;;;;9.00;3.58;;;4.40;99.90;;;;;;5050630;28;20028;-59
2022/12/17 16:12:21;;;;;;;12.50;4.30;;;4.30;99.90;;;;;;5048839;28;20021;-57
2022/12/17 16:14:46;;;;;;;8.57;4.20;;;4.00;99.90;;;;;;5050016;28;20532;-59
2022/12/17 16:17:12;;;;;;;10.93;4.72;;;3.90;99.90;;;;;;5050302;28;20035;-60
2022/12/17 16:19:38;;;;;;;9.73;4.47;;;3.90;99.90;;;;;;5050413;28;20057;-59
2022/12/17 16:22:03;;;;;;;10.68;3.72;;;3.70;99.90;;;;;;5050245;28;20051;-58
2022/12/17 16:24:29;;;;;;;10.23;4.45;;;3.60;99.90;;;;;;5052622;28;20087;-60
2022/12/17 16:26:55;;;;;;;13.63;4.80;;;3.60;99.90;;;;;;5054008;28;20028;-60
2022/12/17 16:29:21;;;;;;;15.25;4.90;;;3.60;99.90;;;;;;5054069;28;20025;-60
2022/12/17 16:31:48;;;;;;;14.70;5.53;;;3.70;99.90;;;;;;5053955;28;20579;-59
2022/12/17 16:34:14;;;;;;;13.65;5.22;;;3.80;99.90;;;;;;5053932;28;20040;-60
2022/12/17 16:36:40;;;;;;;12.63;5.03;;;3.80;99.90;;;;;;5053935;28;20021;-60
2022/12/17 16:39:06;;;;;;;12.77;4.72;;;3.80;99.90;;;;;;5035871;28;20420;-57
2022/12/17 16:41:33;;;;;;;13.57;5.38;;;3.80;99.90;;;;;;5053657;28;20032;-59
2022/12/17 16:43:59;;;;;;;14.52;5.93;;;3.90;99.90;;;;;;5053635;28;20065;-61
2022/12/17 16:46:29;;;;;;;11.38;5.60;;;3.90;99.90;;;;;;5053735;28;20401;-61
2022/12/17 16:48:57;;;;;;;15.23;6.18;;;3.90;99.90;;;;;;5053502;28;20029;-59
2022/12/17 16:51:25;;;;;;;16.30;6.05;;;4.00;99.90;;;;;;5053575;28;20426;-60
2022/12/17 16:53:50;;;;;;;14.70;6.43;;;4.00;99.90;;;;;;5053412;28;20098;-59
2022/12/17 16:56:19;;;;;;;16.73;6.18;;;3.90;99.90;;;;;;5053502;28;20029;-67
2022/12/17 16:58:45;;;;;;;13.52;5.53;;;3.90;99.90;;;;;;5053509;28;20505;-61
2022/12/17 17:01:11;;;;;;;16.17;7.00;;;3.90;99.90;;;;;;5053265;28;20044;-60
2022/12/17 17:03:41;;;;;;;14.77;5.97;;;3.90;99.90;;;;;;5053293;28;20029;-61
2022/12/17 17:06:08;;;;;;;15.45;7.00;;;4.00;99.90;;;;;;5053334;28;20078;-60
2022/12/17 17:08:37;;;;;;;15.02;6.35;;;3.90;99.90;;;;;;5053313;28;20494;-60
2022/12/17 17:11:12;;;;;;;16.05;6.80;;;3.90;99.90;;;;;;5053207;28;20029;-59
2022/12/17 17:13:39;;;;;;;16.05;6.50;;;3.80;99.90;;;;;;5053262;28;20028;-60
2022/12/17 17:16:06;;;;;;;15.55;6.10;;;3.70;99.90;;;;;;5053175;28;20028;-61
2022/12/17 17:18:32;;;;;;;21.25;6.90;;;3.60;99.90;;;;;;5051210;28;20029;-60
2022/12/17 17:21:37;;;;;;;17.73;6.88;;;3.50;99.90;;;;;;5052409;28;20021;-61
2022/12/17 17:24:06;;;;;;;18.00;7.53;;;3.60;99.90;;;;;;5052608;28;20552;-60
2022/12/17 17:26:33;;;;;;;19.27;8.20;;;3.60;99.90;;;;;;5039374;28;20033;-60
2022/12/17 17:29:00;;;;;;;16.92;7.43;;;3.70;99.90;;;;;;5032915;28;20033;-60
2022/12/17 17:31:26;;;;;;;18.98;7.68;;;3.80;99.90;;;;;;5032705;28;20047;-61
2022/12/17 17:33:52;;;;;;;19.58;7.68;;;3.70;99.90;;;;;;5032886;28;20025;-60
2022/12/17 17:36:29;;;;;;;16.67;6.90;;;3.80;99.90;;;;;;5032471;28;20034;-59
2022/12/17 17:38:58;;;;;;;18.55;7.40;;;3.80;99.90;;;;;;5032914;28;20087;-60
2022/12/17 17:41:26;;;;;;;16.55;6.80;;;3.80;99.90;;;;;;5032824;28;20049;-58
2022/12/17 17:43:59;;;;;;;19.88;7.38;;;3.70;99.90;;;;;;5039079;28;20037;-60
2022/12/17 17:46:27;;;;;;;17.15;7.63;;;3.70;99.90;;;;;;5052195;28;20691;-59
2022/12/17 17:48:55;;;;;;;17.65;7.00;;;3.60;99.90;;;;;;5049678;28;20021;-59
2022/12/17 17:51:25;;;;;;;19.75;7.18;;;3.50;99.90;;;;;;5052329;28;20426;-60
2022/12/17 17:53:52;;;;;;;18.73;7.53;;;3.40;99.90;;;;;;5052267;28;20033;-60
2022/12/17 17:56:25;;;;;;;19.85;7.55;;;3.50;99.90;;;;;;5051926;28;20112;-60
2022/12/17 17:59:05;;;;;;;22.42;6.70;;;3.50;99.90;;;;;;5049819;28;20432;-60
2022/12/17 18:01:35;;;;;;;15.55;6.07;;;3.60;99.90;;;;;;5050143;28;20052;-61
2022/12/17 18:04:05;;;;;;;16.15;6.95;;;3.60;99.90;;;;;;5051847;28;20024;-59
2022/12/17 18:06:31;;;;;;;18.00;6.55;;;;;;;;;;5052245;28;20420;-61
2022/12/17 18:08:58;;;;;;;18.15;6.55;;;3.50;99.90;;;;;;5065065;28;20044;-61
2022/12/17 18:11:26;;;;;;;19.38;7.55;;;3.50;99.90;;;;;;5058869;28;20040;-61
2022/12/17 18:13:55;;;;;;;20.25;7.97;;;3.50;99.90;;;;;;5052112;28;20029;-61
2022/12/17 18:16:31;;;;;;;20.60;7.57;;;3.30;99.90;;;;;;5050769;28;20032;-60
2022/12/17 18:19:02;;;;;;;19.25;7.28;;;3.20;99.90;;;;;;5050807;28;20541;-59
2022/12/17 18:21:29;;;;;;;20.23;8.40;;;3.20;99.90;;;;;;5056197;28;20113;-61
2022/12/17 18:24:00;;;;;;;26.30;10.05;;;3.10;99.90;;;;;;5063888;28;20052;-62
2022/12/17 18:26:29;;;;;;;24.43;9.20;;;3.10;99.90;;;;;;5072102;28;20025;-60
2022/12/17 18:28:55;;;;;;;29.63;9.27;;;3.20;99.90;;;;;;5071745;28;20044;-61
2022/12/17 18:31:24;;;;;;;25.30;10.85;;;3.20;99.90;;;;;;5063776;28;20047;-60
2022/12/17 18:33:56;;;;;;;26.35;10.43;;;3.20;99.90;;;;;;5066335;28;20486;-60
2022/12/17 18:36:25;;;;;;;27.40;11.65;;;3.30;99.90;;;;;;5049063;28;20028;-60
2022/12/17 18:39:00;;;;;;;36.47;12.00;;;3.30;99.90;;;;;;5048950;28;20040;-60
2022/12/17 18:44:11;;;;;;;30.13;13.38;;;3.40;99.90;;;;;;5051369;28;20052;-60
2022/12/17 18:46:37;;;;;;;37.80;13.35;;;3.40;99.90;;;;;;5049456;28;20032;-59
2022/12/17 18:49:06;;;;;;;32.15;13.10;;;3.30;99.90;;;;;;5049179;28;20493;-59
2022/12/17 18:51:34;;;;;;;35.45;12.85;;;3.30;99.90;;;;;;5051348;28;20525;-59
2022/12/17 18:54:05;;;;;;;32.67;12.65;;;3.30;99.90;;;;;;5051225;28;20060;-60
2022/12/17 18:56:32;;;;;;;39.00;13.70;;;3.30;99.90;;;;;;5053888;28;20028;-61
2022/12/17 18:59:04;;;;;;;39.08;13.13;;;3.40;99.90;;;;;;5053112;28;20036;-60
2022/12/17 19:01:35;;;;;;;33.95;13.02;;;3.30;99.90;;;;;;5038205;28;20064;-60
2022/12/17 19:04:05;;;;;;;34.95;14.15;;;3.30;99.90;;;;;;5051004;28;20473;-61
2022/12/17 19:06:32;;;;;;;35.25;14.95;;;3.30;99.90;;;;;;5060186;28;20101;-62
2022/12/17 19:08:58;;;;;;;38.75;14.32;;;3.30;99.90;;;;;;5050510;28;20104;-61
2022/12/17 19:11:24;;;;;;;37.30;14.57;;;3.30;99.90;;;;;;5053992;28;20033;-63
2022/12/17 19:13:50;;;;;;;38.17;13.63;;;3.30;99.90;;;;;;5050997;28;20079;-60
2022/12/17 19:16:21;;;;;;;41.33;14.13;;;3.20;99.90;;;;;;5055242;28;20039;-60
2022/12/17 19:18:58;;;;;;;39.65;13.75;;;3.10;99.90;;;;;;5071115;28;20423;-61
2022/12/17 19:21:25;;;;;;;41.58;15.77;;;3.10;99.90;;;;;;5031065;28;20033;-62
2022/12/17 19:23:57;;;;;;;41.88;15.15;;;3.10;99.90;;;;;;5036716;28;20036;-62
2022/12/17 19:26:23;;;;;;;38.13;14.37;;;3.00;99.90;;;;;;5056143;28;20028;-61
2022/12/17 19:28:52;;;;;;;35.03;14.05;;;3.00;99.90;;;;;;5056257;28;20021;-62
2022/12/17 19:31:19;;;;;;;38.75;15.32;;;3.00;99.90;;;;;;5050765;28;20017;-61
2022/12/17 19:33:45;;;;;;;40.85;14.68;;;3.00;99.90;;;;;;5050724;28;20017;-61
2022/12/17 19:36:21;;;;;;;42.53;15.30;;;3.10;1.00;;;;;;5050723;28;20116;-61
2022/12/17 19:38:51;;;;;;;40.78;15.10;;;3.10;99.90;;;;;;5050652;28;20021;-61
2022/12/17 19:41:18;;;;;;;38.40;14.98;;;3.20;99.90;;;;;;5050807;28;20049;-61
2022/12/17 19:43:45;;;;;;;42.90;14.77;;;3.30;99.90;;;;;;5048710;28;20043;-60
2022/12/17 19:46:16;;;;;;;38.38;14.98;;;3.40;99.90;;;;;;5053829;28;20470;-62
2022/12/17 19:48:43;;;;;;;44.55;16.25;;;3.30;99.90;;;;;;5050558;28;20029;-62
2022/12/17 19:51:11;;;;;;;33.22;14.32;;;3.30;99.90;;;;;;5049496;28;20048;-63
2022/12/17 19:53:39;;;;;;;41.47;16.80;;;3.20;99.90;;;;;;5050089;28;20488;-61
2022/12/17 19:56:41;;;;;;;37.45;14.50;;;3.20;99.90;;;;;;5050599;28;20351;-61
2022/12/17 19:59:08;;;;;;;45.15;15.40;;;3.30;99.90;;;;;;5010292;28;20122;-61
2022/12/17 20:01:38;;;;;;;42.53;16.17;;;3.40;99.90;;;;;;5046122;28;20531;-62
2022/12/17 20:04:05;;;;;;;40.90;15.18;;;3.50;99.90;;;;;;5054165;28;20040;-61
2022/12/17 20:06:32;;;;;;;38.25;15.10;;;3.50;99.90;;;;;;5054381;28;20025;-62
2022/12/17 20:08:59;;;;;;;40.13;14.38;;;3.50;99.90;;;;;;5054212;28;20186;-61
2022/12/17 20:11:31;;;;;;;43.05;15.63;;;3.50;99.90;;;;;;5054160;28;20074;-62
2022/12/17 20:14:05;;;;;;;41.35;15.75;;;3.60;99.90;;;;;;5054368;28;20044;-61
2022/12/17 20:16:36;;;;;;;38.72;14.40;;;3.60;99.90;;;;;;5054132;28;20438;-62
2022/12/17 20:19:04;;;;;;;37.05;13.60;;;3.60;99.90;;;;;;5054351;28;20032;-61
2022/12/17 20:21:30;;;;;;;32.97;14.05;;;3.60;99.90;;;;;;5054207;28;20029;-61
2022/12/17 20:23:55;;;;;;;33.63;12.38;;;3.60;99.90;;;;;;5054109;28;20098;-62
2022/12/17 20:26:21;;;;;;;37.10;13.70;;;3.60;99.90;;;;;;5054069;28;20100;-62
2022/12/17 20:28:47;;;;;;;31.85;12.68;;;3.50;99.90;;;;;;5053986;28;20025;-61
2022/12/17 20:31:13;;;;;;;37.92;13.90;;;3.50;99.90;;;;;;5054026;28;20571;-61
2022/12/17 20:33:38;;;;;;;36.00;13.50;;;3.40;99.90;;;;;;5054191;28;20021;-61
2022/12/17 20:36:16;;;;;;;35.45;12.85;;;3.40;99.90;;;;;;5053777;28;20401;-61
2022/12/17 20:38:42;;;;;;;30.65;12.27;;;3.40;99.90;;;;;;5053943;28;20029;-62
2022/12/17 20:41:09;;;;;;;36.33;13.80;;;3.40;99.90;;;;;;5053965;28;20048;-61
2022/12/17 20:43:35;;;;;;;33.78;13.20;;;3.50;99.90;;;;;;5053348;28;20079;-61
2022/12/17 20:46:01;;;;;;;34.10;13.90;;;3.50;99.90;;;;;;5053886;28;20029;-62
2022/12/17 20:48:27;;;;;;;31.77;13.15;;;3.50;99.90;;;;;;5052474;28;20477;-61
2022/12/17 20:50:53;;;;;;;33.70;12.32;;;3.40;99.90;;;;;;5053408;28;20083;-61
2022/12/17 20:53:19;;;;;;;34.05;12.88;;;3.40;99.90;;;;;;5053537;28;20100;-61
2022/12/17 20:55:45;;;;;;;33.25;14.07;;;3.30;99.90;;;;;;5053565;28;20021;-61
2022/12/17 20:58:12;;;;;;;32.92;13.65;;;3.20;99.90;;;;;;5053681;28;20401;-60
2022/12/17 21:00:39;;;;;;;31.65;12.80;;;3.10;99.90;;;;;;5053443;28;20067;-61
2022/12/17 21:03:05;;;;;;;30.08;12.57;;;3.10;99.90;;;;;;5053455;28;20039;-62
2022/12/17 21:05:33;;;;;;;29.98;10.15;;;3.00;99.90;;;;;;5053554;28;20037;-60
2022/12/17 21:07:59;;;;;;;34.50;12.82;;;3.00;99.90;;;;;;5053444;28;20031;-61
2022/12/17 21:10:24;;;;;;;28.75;11.23;;;2.90;99.90;;;;;;5052461;28;20124;-61
2022/12/17 21:15:35;;;;;;;30.58;11.32;;;2.80;99.90;;;;;;5053524;28;20056;-61
2022/12/17 21:18:00;;;;;;;26.40;10.85;;;2.70;99.90;;;;;;5053453;28;20029;-60
2022/12/17 21:20:26;;;;;;;30.88;11.93;;;2.60;99.90;;;;;;5053006;28;20021;-61
2022/12/17 21:22:52;;;;;;;30.25;12.15;;;2.60;99.90;;;;;;5053001;28;20072;-61
2022/12/17 21:25:17;;;;;;;27.30;11.40;;;2.50;99.90;;;;;;5053073;28;20044;-61
2022/12/17 21:27:43;;;;;;;32.30;11.65;;;2.50;99.90;;;;;;5053108;28;20097;-59
2022/12/17 21:30:10;;;;;;;30.02;11.90;;;2.50;99.90;;;;;;5052743;28;20029;-61
2022/12/17 21:32:35;;;;;;;31.77;12.02;;;2.40;99.90;;;;;;5051717;28;20557;-60
2022/12/17 21:35:01;;;;;;;26.55;11.43;;;2.40;99.90;;;;;;5052920;28;20060;-60
2022/12/17 21:37:27;;;;;;;33.38;12.60;;;2.40;1.00;;;;;;5052965;28;20021;-60
2022/12/17 21:39:52;;;;;;;37.28;13.18;;;2.30;99.90;;;;;;5052840;28;20521;-61
2022/12/17 21:45:02;;;;;;;35.95;13.02;;;2.40;1.00;;;;;;5053290;28;20068;-64
2022/12/17 21:47:28;;;;;;;36.85;13.85;;;2.40;1.00;;;;;;5052969;28;20048;-60
2022/12/17 21:49:53;;;;;;;36.75;13.90;;;2.40;1.00;;;;;;5052734;28;20028;-61
2022/12/17 21:52:19;;;;;;;31.70;12.50;;;2.20;1.00;;;;;;5050627;28;20028;-61
2022/12/17 21:54:45;;;;;;;34.17;12.38;;;2.20;1.00;;;;;;5052446;28;20025;-62
2022/12/17 21:57:11;;;;;;;37.47;12.73;;;2.20;1.00;;;;;;5052566;28;20579;-61
2022/12/17 21:59:39;;;;;;;38.22;13.48;;;2.30;1.00;;;;;;5052520;28;20036;-62
2022/12/17 22:02:05;;;;;;;39.90;15.18;;;2.30;1.00;;;;;;5052328;28;20126;-60
2022/12/17 22:04:30;;;;;;;35.58;14.52;;;2.30;1.00;;;;;;5052165;28;20486;-60
2022/12/17 22:06:56;;;;;;;41.35;14.52;;;2.30;6.10;;;;;;5052285;28;20029;-61
2022/12/17 22:09:22;;;;;;;40.10;14.50;;;2.20;1.00;;;;;;5052581;28;20104;-61
2022/12/17 22:11:48;;;;;;;42.03;14.18;;;2.30;19.20;;;;;;5052065;28;20489;-60
2022/12/17 22:14:13;;;;;;;37.25;13.75;;;2.30;36.30;;;;;;5052135;28;20037;-61
2022/12/17 22:16:41;;;;;;;37.97;13.90;;;2.40;14.40;;;;;;5051691;28;20052;-61
2022/12/17 22:19:13;;;;;;;39.25;15.68;;;2.40;16.20;;;;;;5050786;28;20107;-61
2022/12/17 22:21:41;;;;;;;45.50;14.98;;;2.50;43.60;;;;;;5051845;28;20024;-60
2022/12/17 22:24:11;;;;;;;40.15;15.65;;;2.60;13.80;;;;;;5051582;28;20044;-60
2022/12/17 22:26:37;;;;;;;41.53;14.18;;;2.60;1.00;;;;;;5052163;28;20131;-60
2022/12/17 22:29:03;;;;;;;43.63;15.15;;;2.60;1.00;;;;;;5051700;28;20537;-60
2022/12/17 22:34:13;;;;;;;37.78;14.68;;;2.50;1.00;;;;;;5051766;28;20114;-60
2022/12/17 22:36:39;;;;;;;42.03;14.82;;;2.50;1.00;;;;;;5051781;28;20053;-60
2022/12/17 22:39:08;;;;;;;40.08;15.13;;;2.50;1.00;;;;;;5051610;28;20021;-61
2022/12/17 22:44:18;;;;;;;41.08;14.73;;;2.30;1.00;;;;;;5051409;28;20559;-61
2022/12/17 22:46:44;;;;;;;35.97;13.75;;;2.30;1.00;;;;;;5051634;28;20063;-60
2022/12/17 22:49:10;;;;;;;35.00;13.88;;;2.30;1.00;;;;;;5051555;28;20029;-62
2022/12/17 22:51:36;;;;;;;37.33;13.95;;;2.40;1.00;;;;;;5051217;28;20405;-61
2022/12/17 22:54:04;;;;;;;35.38;13.30;;;2.40;1.00;;;;;;5050875;28;20032;-61
2022/12/17 22:56:30;;;;;;;37.10;14.93;;;2.50;1.00;;;;;;5051152;28;20033;-61
2022/12/17 22:58:56;;;;;;;38.20;14.52;;;2.40;99.90;;;;;;5051358;28;20032;-61
2022/12/17 23:01:22;;;;;;;43.00;14.60;;;2.30;99.90;;;;;;5051307;28;20110;-60
2022/12/17 23:03:48;;;;;;;33.65;12.95;;;2.30;99.90;;;;;;5051197;28;20467;-61
2022/12/17 23:06:16;;;;;;;37.75;14.10;;;2.30;99.90;;;;;;5051267;28;20615;-60
2022/12/17 23:08:42;;;;;;;43.85;14.93;;;2.10;99.90;;;;;;5050988;28;20025;-60
2022/12/17 23:11:20;;;;;;;39.03;15.05;;;1.90;99.90;;;;;;5051208;28;20423;-62
2022/12/17 23:13:46;;;;;;;36.83;14.23;;;1.70;99.90;;;;;;5050946;28;20036;-59
2022/12/17 23:16:13;;;;;;;40.10;15.50;;;1.60;99.90;;;;;;5051119;28;20060;-61
2022/12/17 23:18:42;;;;;;;47.75;15.70;;;1.70;1.00;;;;;;5051224;28;20025;-62
2022/12/17 23:21:16;;;;;;;39.75;14.02;;;1.90;27.50;;;;;;5051112;28;20107;-61
2022/12/17 23:23:42;;;;;;;35.40;14.43;;;2.00;12.90;;;;;;5050649;28;20069;-61
2022/12/17 23:26:11;;;;;;;41.92;15.85;;;2.10;37.10;;;;;;5050926;28;20502;-61
2022/12/17 23:28:40;;;;;;;45.90;16.75;;;2.10;35.30;;;;;;5050923;28;20145;-61
2022/12/17 23:31:14;;;;;;;36.85;14.80;;;2.20;22.00;;;;;;5051096;28;20028;-62
2022/12/17 23:33:40;;;;;;;29.55;13.13;;;2.30;2.10;;;;;;5052537;28;20469;-62
2022/12/17 23:36:08;;;;;;;38.50;15.55;;;2.40;1.00;;;;;;5054985;28;20029;-62
2022/12/17 23:38:35;;;;;;;38.03;14.40;;;2.50;1.00;;;;;;5054965;28;20029;-62
2022/12/17 23:41:12;;;;;;;40.13;15.43;;;2.50;99.90;;;;;;5055064;28;20533;-61
2022/12/17 23:43:38;;;;;;;38.83;14.27;;;2.30;99.90;;;;;;5055010;28;20477;-61
2022/12/17 23:46:05;;;;;;;35.97;13.65;;;2.10;99.90;;;;;;5054970;28;20028;-62
2022/12/17 23:48:35;;;;;;;34.33;12.88;;;2.10;99.90;;;;;;5054815;28;20021;-62
2022/12/17 23:51:02;;;;;;;39.42;13.68;;;2.30;1.00;;;;;;5054789;28;20029;-61
2022/12/17 23:53:29;;;;;;;37.42;13.13;;;2.50;99.90;;;;;;5054446;28;20021;-60
2022/12/17 23:55:55;;;;;;;33.60;13.13;;;2.40;99.90;;;;;;5054809;28;20029;-61
2022/12/17 23:58:21;;;;;;;37.67;13.20;;;2.30;99.90;;;;;;5053454;28;20044;-60
